ADDS METAR Data INFO
IDs: Format: Raw Decoded Include TAF

Data at: 2207 UTC 24 Jun 2018

METAR for:KPIE (St Petersburg/Clearw, FL, US)
Text:KPIE 242153Z AUTO 08018G24KT 10SM VCTS FEW025 BKN050 OVC075 28/24 A3002 RMK AO2 PK WND 09027/2143 WSHFT 2135 LTG DSNT NE-SE SLP166 T02780239 $
Temperature: 27.8°C ( 82°F)
Dewpoint: 23.9°C ( 75°F) [RH = 79%]
Pressure (altimeter):30.02 inches Hg (1016.7 mb) [Sea level pressure: 1016.6 mb]
Winds:from the E (80 degrees) at 21 MPH (18 knots; 9.3 m/s) gusting to 28 MPH (24 knots; 12.3 m/s)
Visibility:10 or more sm (16+ km)
Ceiling:5000 feet AGL
Clouds: few clouds at 2500 feet AGL, broken clouds at 5000 feet AGL, overcast cloud deck at 7500 feet AGL
Weather:VCTS (thunderstorm in vicinity)
QC Flag:automated observation with no human augmentation; SOME DATA ABOVE MAY BE INACCURATE!!!"$" is an indication the sensor requires maintenance.